Time;durP1;ratioP1;P1;durP2;ratioP2;P2;SDS_P1;SDS_P2;PMS_P1;PMS_P2;Temp;Humidity;BMP_temperature;BMP_pressure;BME280_temperature;BME280_humidity;BME280_pressure;Samples;Min_cycle;Max_cycle;Signal;HPM_P1;HPM_P2
2022/07/21 00:00:28;;;;;;;4.85;2.95;;;;;;;;;;5128671;27;20051;-73
2022/07/21 00:02:59;;;;;;;7.18;3.38;;;;;;;;;;5127726;27;20051;-73
2022/07/21 00:05:29;;;;;;;9.68;3.78;;;;;;;;;;5128706;27;20054;-73
2022/07/21 00:07:59;;;;;;;7.82;3.75;;;;;;;;;;5126839;27;20039;-73
2022/07/21 00:10:29;;;;;;;6.75;3.97;;;;;;;;;;5128687;27;20054;-73
2022/07/21 00:12:59;;;;;;;5.50;3.40;;;;;;;;;;5129063;27;20429;-73
2022/07/21 00:15:29;;;;;;;4.95;3.53;;;;;;;;;;5127522;27;20066;-73
2022/07/21 00:18:00;;;;;;;4.28;3.50;;;;;;;;;;5128335;27;20043;-73
2022/07/21 00:20:30;;;;;;;6.45;4.30;;;;;;;;;;5127984;27;20043;-73
2022/07/21 00:23:00;;;;;;;8.25;4.10;;;;;;;;;;5128151;27;20051;-73
2022/07/21 00:25:30;;;;;;;6.95;3.55;;;;;;;;;;5128210;27;20058;-73
2022/07/21 00:28:04;;;;;;;7.05;3.53;;;;;;;;;;5126947;27;20414;-73
2022/07/21 00:30:35;;;;;;;9.88;4.90;;;;;;;;;;5127964;27;20051;-74
2022/07/21 00:33:05;;;;;;;7.28;4.05;;;;;;;;;;5127626;27;20043;-73
2022/07/21 00:35:35;;;;;;;7.53;3.95;;;;;;;;;;5127674;27;20058;-73
2022/07/21 00:38:05;;;;;;;5.68;3.25;;;;;;;;;;5125748;27;20058;-73
2022/07/21 00:40:35;;;;;;;6.65;3.53;;;;;;;;;;5128596;27;20070;-73
2022/07/21 00:43:05;;;;;;;7.53;3.42;;;;;;;;;;5127834;27;20057;-74
2022/07/21 00:45:35;;;;;;;7.05;3.72;;;;;;;;;;5126958;27;20054;-73
2022/07/21 00:48:06;;;;;;;4.75;3.45;;;;;;;;;;5128117;27;20502;-73
2022/07/21 00:50:37;;;;;;;6.15;3.45;;;;;;;;;;5127050;27;20402;-72
2022/07/21 00:53:07;;;;;;;6.65;3.40;;;;;;;;;;5126723;27;20054;-72
2022/07/21 00:55:43;;;;;;;6.68;3.00;;;;;;;;;;5127543;27;20047;-74
2022/07/21 00:58:14;;;;;;;6.15;3.10;;;;;;;;;;5127204;27;20047;-72
2022/07/21 01:00:44;;;;;;;7.53;3.53;;;;;;;;;;5127569;27;20490;-72
2022/07/21 01:03:14;;;;;;;9.30;3.97;;;;;;;;;;5127379;28;20047;-72
2022/07/21 01:05:45;;;;;;;8.43;3.70;;;;;;;;;;5127313;28;20035;-72
2022/07/21 01:08:15;;;;;;;7.03;3.60;;;;;;;;;;5127763;28;20418;-72
2022/07/21 01:10:45;;;;;;;8.98;4.15;;;;;;;;;;5126700;28;20054;-73
2022/07/21 01:13:15;;;;;;;5.20;3.28;;;;;;;;;;5128054;28;20082;-72
2022/07/21 01:15:45;;;;;;;4.38;3.30;;;;;;;;;;5126608;28;20506;-73
2022/07/21 01:18:16;;;;;;;6.63;3.33;;;;;;;;;;5126804;28;20043;-73
2022/07/21 01:20:53;;;;;;;8.45;4.95;;;;;;;;;;5126949;28;20554;-73
2022/07/21 01:23:23;;;;;;;6.80;4.00;;;;;;;;;;5125891;28;20046;-74
2022/07/21 01:25:53;;;;;;;7.30;3.65;;;;;;;;;;5126163;28;20500;-74
2022/07/21 01:28:23;;;;;;;7.25;3.58;;;;;;;;;;5125970;28;20058;-74
2022/07/21 01:30:53;;;;;;;7.38;3.97;;;;;;;;;;5126064;27;20047;-74
2022/07/21 01:33:23;;;;;;;6.60;3.45;;;;;;;;;;5129449;27;20767;-73
2022/07/21 01:35:53;;;;;;;7.13;3.38;;;;;;;;;;5129122;27;20464;-73
2022/07/21 01:41:28;;;;;;;4.40;3.22;;;;;;;;;;5130030;27;20386;-73
2022/07/21 01:44:05;;;;;;;11.07;4.22;;;;;;;;;;5128238;27;20047;-72
2022/07/21 01:46:41;;;;;;;7.00;3.92;;;;;;;;;;5129173;27;20062;-71
2022/07/21 01:49:12;;;;;;;7.78;3.58;;;;;;;;;;5128880;27;20735;-72
2022/07/21 01:51:43;;;;;;;6.70;3.15;;;;;;;;;;5129056;27;20043;-75
2022/07/21 01:54:14;;;;;;;8.45;4.03;;;;;;;;;;5129087;27;20048;-71
2022/07/21 01:56:52;;;;;;;9.50;3.53;;;;;;;;;;5129458;27;20043;-72
2022/07/21 01:59:21;;;;;;;8.57;4.13;;;;;;;;;;5131632;27;20055;-72
2022/07/21 02:01:51;;;;;;;;;;;;;;;;;;5131674;27;20047;-72
2022/07/21 02:04:21;;;;;;;7.50;3.28;;;;;;;;;;5131107;27;19923;-72
2022/07/21 02:06:50;;;;;;;6.50;3.50;;;;;;;;;;5131025;27;20055;-72
2022/07/21 02:09:20;;;;;;;5.07;3.50;;;;;;;;;;5131084;27;20086;-72
2022/07/21 02:11:50;;;;;;;7.60;3.70;;;;;;;;;;5131280;27;20112;-72
2022/07/21 02:14:19;;;;;;;;;;;;;;;;;;5131238;27;20047;-72
2022/07/21 02:16:49;;;;;;;5.03;3.53;;;;;;;;;;5130425;27;20279;-72
2022/07/21 02:19:19;;;;;;;7.82;4.25;;;;;;;;;;5130670;27;20054;-73
2022/07/21 02:21:49;;;;;;;6.50;3.58;;;;;;;;;;5130426;27;20051;-72
2022/07/21 02:24:18;;;;;;;;;;;;;;;;;;5131621;27;20418;-72
2022/07/21 02:26:48;;;;;;;6.60;2.88;;;;;;;;;;5130979;27;19930;-72
2022/07/21 02:29:18;;;;;;;5.45;3.40;;;;;;;;;;5130674;27;20070;-72
2022/07/21 02:31:47;;;;;;;;;;;;;;;;;;5130563;27;20047;-72
2022/07/21 02:34:17;;;;;;;4.78;3.10;;;;;;;;;;5130312;27;19927;-72
2022/07/21 02:36:47;;;;;;;6.13;4.07;;;;;;;;;;5130020;27;20050;-72
2022/07/21 02:39:17;;;;;;;5.20;3.60;;;;;;;;;;5129974;27;20042;-73
2022/07/21 02:41:46;;;;;;;6.22;4.38;;;;;;;;;;5129641;27;20425;-72
2022/07/21 02:44:16;;;;;;;6.20;3.53;;;;;;;;;;5128735;27;20504;-72
2022/07/21 02:46:46;;;;;;;6.00;3.80;;;;;;;;;;5130087;27;20043;-72
2022/07/21 02:49:15;;;;;;;;;;;;;;;;;;5130632;27;20051;-72
2022/07/21 02:51:45;;;;;;;5.50;3.83;;;;;;;;;;5130783;27;19919;-72
2022/07/21 02:54:15;;;;;;;9.23;3.22;;;;;;;;;;5130068;27;20039;-71
2022/07/21 02:56:44;;;;;;;;;;;;;;;;;;5130023;27;20050;-72
2022/07/21 02:59:14;;;;;;;6.07;3.70;;;;;;;;;;5129895;27;20515;-71
2022/07/21 03:01:43;;;;;;;;;;;;;;;;;;5128862;27;20051;-72
2022/07/21 03:04:13;;;;;;;18.25;3.17;;;;;;;;;;5130032;27;20673;-72
2022/07/21 03:06:43;;;;;;;4.50;2.97;;;;;;;;;;5130102;27;20070;-72
2022/07/21 03:09:13;;;;;;;6.25;3.50;;;;;;;;;;5129138;27;20777;-72
2022/07/21 03:11:43;;;;;;;4.18;3.05;;;;;;;;;;5129577;27;20051;-73
2022/07/21 03:14:12;;;;;;;5.28;3.63;;;;;;;;;;5130151;27;20401;-73
2022/07/21 03:16:43;;;;;;;4.60;3.42;;;;;;;;;;5129429;27;20393;-72
2022/07/21 03:19:13;;;;;;;6.38;3.92;;;;;;;;;;5129694;27;20509;-73
2022/07/21 03:21:42;;;;;;;;;;;;;;;;;;5129523;27;20046;-72
2022/07/21 03:24:12;;;;;;;8.18;4.35;;;;;;;;;;5127775;27;19923;-72
2022/07/21 03:26:41;;;;;;;;;;;;;;;;;;5129732;27;20039;-73
2022/07/21 03:29:12;;;;;;;7.20;4.38;;;;;;;;;;5129394;27;19923;-72
2022/07/21 03:31:42;;;;;;;7.35;4.20;;;;;;;;;;5129028;27;20051;-72
2022/07/21 03:34:11;;;;;;;;;;;;;;;;;;5130020;27;20051;-73
2022/07/21 03:36:41;;;;;;;5.72;4.25;;;;;;;;;;5129157;27;19930;-73
2022/07/21 03:39:10;;;;;;;8.38;4.35;;;;;;;;;;5129124;27;20881;-72
2022/07/21 03:41:40;;;;;;;;;;;;;;;;;;5130076;27;20422;-72
2022/07/21 03:44:09;;;;;;;7.93;3.58;;;;;;;;;;5128817;27;20298;-72
2022/07/21 03:46:39;;;;;;;;;;;;;;;;;;5129014;27;20047;-72
2022/07/21 03:49:08;;;;;;;11.82;5.75;;;;;;;;;;5128674;27;19930;-72
2022/07/21 03:51:38;;;;;;;;;;;;;;;;;;5129365;27;20043;-73
2022/07/21 03:54:07;;;;;;;8.40;4.78;;;;;;;;;;5128407;27;20393;-72
2022/07/21 03:56:36;;;;;;;;;;;;;;;;;;5129083;27;20399;-72
2022/07/21 03:59:06;;;;;;;10.10;4.47;;;;;;;;;;5128658;27;19923;-72
2022/07/21 04:01:35;;;;;;;;;;;;;;;;;;5127400;27;20058;-72
2022/07/21 04:04:05;;;;;;;7.38;4.38;;;;;;;;;;5129024;27;19927;-72
2022/07/21 04:06:35;;;;;;;10.43;3.92;;;;;;;;;;5129120;27;20418;-71
2022/07/21 04:09:05;;;;;;;6.53;4.05;;;;;;;;;;5128981;27;20486;-72
2022/07/21 04:11:34;;;;;;;;;;;;;;;;;;5128020;27;20043;-72
2022/07/21 04:14:04;;;;;;;4.22;3.25;;;;;;;;;;5127866;27;19946;-72
2022/07/21 04:16:34;;;;;;;6.45;3.47;;;;;;;;;;5128289;27;20414;-72
2022/07/21 04:19:04;;;;;;;7.47;4.45;;;;;;;;;;5128382;27;20054;-72
2022/07/21 04:21:34;;;;;;;10.77;5.05;;;;;;;;;;5128140;27;20043;-72
2022/07/21 04:24:04;;;;;;;11.85;4.88;;;;;;;;;;5128417;27;20050;-72
2022/07/21 04:26:34;;;;;;;85.75;5.65;;;;;;;;;;5128023;27;20118;-71
2022/07/21 04:29:03;;;;;;;;;;;;;;;;;;5127662;27;20051;-72
2022/07/21 04:31:33;;;;;;;6.60;3.78;;;;;;;;;;5127961;27;20392;-73
2022/07/21 04:34:03;;;;;;;5.63;3.90;;;;;;;;;;5128463;27;20619;-72
2022/07/21 04:36:33;;;;;;;6.25;3.70;;;;;;;;;;5128065;27;20058;-73
2022/07/21 04:39:03;;;;;;;9.05;2.97;;;;;;;;;;5127533;27;20494;-72
2022/07/21 04:41:34;;;;;;;4.75;3.55;;;;;;;;;;5126561;27;20058;-72
2022/07/21 04:44:04;;;;;;;;;;;;;;;;;;5128546;27;20074;-72
2022/07/21 04:46:34;;;;;;;7.38;3.60;;;;;;;;;;5128043;27;19923;-72
2022/07/21 04:49:04;;;;;;;4.80;2.80;;;;;;;;;;5127506;27;20417;-73
2022/07/21 04:51:34;;;;;;;4.03;2.50;;;;;;;;;;5127171;27;20058;-72
2022/07/21 04:54:04;;;;;;;11.85;3.28;;;;;;;;;;5126599;27;20051;-72
2022/07/21 04:56:34;;;;;;;6.75;3.53;;;;;;;;;;5127801;27;20054;-72
2022/07/21 04:59:03;;;;;;;;;;;;;;;;;;5128396;27;20047;-73
2022/07/21 05:01:33;;;;;;;10.10;4.10;;;;;;;;;;5128374;27;19927;-72
2022/07/21 05:04:03;;;;;;;7.55;4.65;;;;;;;;;;5127539;27;20039;-72
2022/07/21 05:06:34;;;;;;;5.97;4.28;;;;;;;;;;5126948;27;20047;-73
2022/07/21 05:09:04;;;;;;;6.95;4.78;;;;;;;;;;5127609;28;20058;-72
2022/07/21 05:11:34;;;;;;;8.80;4.97;;;;;;;;;;5127434;28;20053;-72
2022/07/21 05:14:04;;;;;;;;;;;;;;;;;;5127882;28;20051;-72
2022/07/21 05:16:43;;;;;;;9.35;4.20;;;;;;;;;;5127358;28;20613;-73
2022/07/21 05:19:13;;;;;;;9.50;5.05;;;;;;;;;;5125629;28;20039;-73
2022/07/21 05:21:42;;;;;;;;;;;;;;;;;;5128092;28;20530;-72
2022/07/21 05:24:12;;;;;;;8.88;4.53;;;;;;;;;;5127790;28;19932;-73
2022/07/21 05:26:42;;;;;;;11.88;4.32;;;;;;;;;;5127776;28;20062;-73
2022/07/21 05:29:11;;;;;;;;;;;;;;;;;;5127875;28;20072;-73
2022/07/21 05:31:41;;;;;;;11.43;3.58;;;;;;;;;;5127330;28;19931;-73
2022/07/21 05:34:10;;;;;;;7.55;4.95;;;;;;;;;;5127429;28;20062;-72
2022/07/21 05:36:40;;;;;;;8.82;5.13;;;;;;;;;;5127589;28;20047;-72
2022/07/21 05:39:10;;;;;;;;;;;;;;;;;;5127890;28;20510;-72
2022/07/21 05:41:40;;;;;;;7.05;4.07;;;;;;;;;;5127035;28;19977;-72
2022/07/21 05:44:09;;;;;;;7.55;4.43;;;;;;;;;;5127253;28;20052;-73
2022/07/21 05:46:39;;;;;;;10.45;4.93;;;;;;;;;;5127198;28;20051;-72
2022/07/21 05:49:09;;;;;;;7.90;4.43;;;;;;;;;;5127143;28;20494;-72
2022/07/21 05:51:39;;;;;;;7.45;4.57;;;;;;;;;;5127065;28;20495;-73
2022/07/21 05:54:09;;;;;;;8.45;4.38;;;;;;;;;;5127621;28;20784;-73
2022/07/21 05:56:38;;;;;;;;;;;;;;;;;;5127500;28;20051;-73
2022/07/21 05:59:08;;;;;;;9.98;4.20;;;;;;;;;;5127564;28;20290;-73
2022/07/21 06:01:38;;;;;;;8.77;4.43;;;;;;;;;;5126068;27;20505;-73
2022/07/21 06:04:08;;;;;;;9.88;5.38;;;;;;;;;;5127439;28;20051;-72
2022/07/21 06:06:37;;;;;;;23.40;4.22;;;;;;;;;;5126894;28;20716;-72
2022/07/21 06:09:08;;;;;;;89.95;5.25;;;;;;;;;;5127014;28;20058;-72
2022/07/21 06:11:38;;;;;;;17.63;5.28;;;;;;;;;;5126719;28;20062;-73
2022/07/21 06:14:08;;;;;;;5.18;3.55;;;;;;;;;;5109047;28;20047;-72
2022/07/21 06:16:38;;;;;;;5.88;4.05;;;;;;;;;;5126992;28;20482;-72
2022/07/21 06:19:08;;;;;;;5.00;4.00;;;;;;;;;;5130450;27;20058;-73
2022/07/21 06:21:38;;;;;;;5.78;4.28;;;;;;;;;;5130801;27;20051;-72
2022/07/21 06:24:14;;;;;;;6.18;4.65;;;;;;;;;;5130586;27;20487;-73
2022/07/21 06:26:44;;;;;;;6.35;4.25;;;;;;;;;;5129090;27;20047;-73
2022/07/21 06:29:13;;;;;;;;;;;;;;;;;;5130480;27;20046;-72
2022/07/21 06:31:43;;;;;;;6.32;3.78;;;;;;;;;;5130142;27;19931;-73
2022/07/21 06:34:12;;;;;;;;;;;;;;;;;;5130929;27;20047;-73
2022/07/21 06:36:42;;;;;;;8.40;4.90;;;;;;;;;;5130167;27;19986;-73
2022/07/21 06:39:12;;;;;;;;;;;;;;;;;;5130426;27;20062;-73
2022/07/21 06:41:42;;;;;;;9.13;4.45;;;;;;;;;;5130157;27;20310;-73
2022/07/21 06:44:13;;;;;;;8.80;5.35;;;;;;;;;;5129732;27;20074;-73
2022/07/21 06:46:44;;;;;;;8.50;5.00;;;;;;;;;;5130392;27;20502;-72
2022/07/21 06:49:14;;;;;;;8.50;5.32;;;;;;;;;;5128961;27;20055;-73
2022/07/21 06:51:43;;;;;;;;;;;;;;;;;;5131126;27;20047;-73
2022/07/21 06:54:13;;;;;;;11.60;5.70;;;;;;;;;;5130259;27;19923;-73
2022/07/21 06:56:42;;;;;;;;;;;;;;;;;;5130050;27;20051;-73
2022/07/21 06:59:11;;;;;;;6.78;3.90;;;;;;;;;;5129592;27;19934;-73
2022/07/21 07:01:41;;;;;;;9.60;4.90;;;;;;;;;;5129584;27;20047;-72
2022/07/21 07:04:12;;;;;;;8.40;4.85;;;;;;;;;;5130323;27;20051;-72
2022/07/21 07:06:43;;;;;;;6.20;4.60;;;;;;;;;;5129494;27;20053;-73
2022/07/21 07:09:13;;;;;;;9.00;6.45;;;;;;;;;;5129334;27;20047;-72
2022/07/21 07:11:42;;;;;;;;;;;;;;;;;;5130349;27;20047;-73
2022/07/21 07:14:34;;;;;;;7.47;4.63;;;;;;;;;;5130293;27;19927;-73
2022/07/21 07:17:05;;;;;;;9.13;5.28;;;;;;;;;;5129545;27;20521;-72
2022/07/21 07:19:35;;;;;;;7.90;4.10;;;;;;;;;;5127873;27;20426;-72
2022/07/21 07:22:05;;;;;;;39.42;5.72;;;;;;;;;;5129187;27;20051;-72
2022/07/21 07:24:34;;;;;;;;;;;;;;;;;;5129733;27;20043;-72
2022/07/21 07:27:04;;;;;;;7.47;3.78;;;;;;;;;;5129292;27;20693;-72
2022/07/21 07:29:34;;;;;;;23.38;4.53;;;;;;;;;;5128312;27;20641;-72
2022/07/21 07:32:03;;;;;;;;;;;;;;;;;;5129650;27;20047;-72
2022/07/21 07:34:33;;;;;;;8.20;4.82;;;;;;;;;;5111253;27;19931;-72
2022/07/21 07:37:03;;;;;;;;;;;;;;;;;;5128566;27;20055;-72
2022/07/21 07:39:32;;;;;;;8.95;4.53;;;;;;;;;;5129630;27;20317;-72
2022/07/21 07:42:04;;;;;;;8.65;4.75;;;;;;;;;;5128665;27;20402;-73
2022/07/21 07:44:35;;;;;;;8.88;5.07;;;;;;;;;;5128811;27;20065;-73
2022/07/21 07:47:05;;;;;;;11.35;5.57;;;;;;;;;;5128768;27;20047;-73
2022/07/21 07:49:35;;;;;;;10.68;5.28;;;;;;;;;;5127880;27;20051;-73
2022/07/21 07:52:05;;;;;;;;;;;;;;;;;;5129314;27;20055;-73
2022/07/21 07:54:36;;;;;;;9.50;4.53;;;;;;;;;;5128741;27;19923;-72
2022/07/21 07:57:05;;;;;;;;;;;;;;;;;;5128791;27;20062;-73
2022/07/21 07:59:37;;;;;;;8.15;4.13;;;;;;;;;;5129040;27;19923;-73
2022/07/21 08:02:07;;;;;;;7.75;4.55;;;;;;;;;;5128315;27;20051;-73
2022/07/21 08:04:37;;;;;;;7.95;4.55;;;;;;;;;;5128992;27;20051;-73
2022/07/21 08:07:08;;;;;;;9.63;5.03;;;;;;;;;;5128311;27;20046;-73
2022/07/21 08:09:39;;;;;;;10.27;4.47;;;;;;;;;;5128110;27;20042;-72
2022/07/21 08:12:09;;;;;;;6.68;4.43;;;;;;;;;;5128802;27;20129;-73
2022/07/21 08:14:39;;;;;;;8.18;4.32;;;;;;;;;;5127375;27;20679;-76
2022/07/21 08:17:11;;;;;;;7.35;4.47;;;;;;;;;;5128033;27;20051;-73
2022/07/21 08:19:44;;;;;;;6.47;4.43;;;;;;;;;;5128230;27;20070;-72
2022/07/21 08:22:14;;;;;;;6.68;5.20;;;;;;;;;;5128419;27;20054;-73
2022/07/21 08:24:44;;;;;;;7.80;5.05;;;;;;;;;;5128220;27;20047;-73
2022/07/21 08:27:14;;;;;;;9.88;4.93;;;;;;;;;;5128058;27;20050;-73
2022/07/21 08:29:44;;;;;;;6.80;4.07;;;;;;;;;;5128232;27;20047;-73
2022/07/21 08:32:14;;;;;;;8.23;4.30;;;;;;;;;;5128374;27;20050;-73
2022/07/21 08:34:44;;;;;;;8.93;4.25;;;;;;;;;;5128098;27;20043;-72
2022/07/21 08:37:15;;;;;;;13.43;4.57;;;;;;;;;;5128231;27;20047;-73
2022/07/21 08:39:45;;;;;;;6.93;4.47;;;;;;;;;;5128368;27;20047;-73
2022/07/21 08:42:14;;;;;;;;;;;;;;;;;;5127834;27;20043;-73
2022/07/21 08:44:44;;;;;;;8.70;4.28;;;;;;;;;;5126483;27;20308;-73
2022/07/21 08:47:15;;;;;;;6.03;4.00;;;;;;;;;;5127971;27;20043;-73
2022/07/21 08:49:46;;;;;;;8.13;4.25;;;;;;;;;;5127517;27;20514;-72
2022/07/21 08:52:18;;;;;;;8.82;5.10;;;;;;;;;;5128151;27;20054;-73
2022/07/21 08:54:48;;;;;;;5.78;3.92;;;;;;;;;;5127953;27;20043;-72
2022/07/21 08:57:18;;;;;;;7.82;5.35;;;;;;;;;;5127276;27;20537;-72
2022/07/21 08:59:48;;;;;;;8.35;4.97;;;;;;;;;;5127981;27;20050;-73
2022/07/21 09:02:27;;;;;;;;;;;;;;;;;;5128406;27;20494;-73
2022/07/21 09:04:57;;;;;;;5.95;4.30;;;;;;;;;;5127925;28;20383;-72
2022/07/21 09:07:28;;;;;;;8.38;4.57;;;;;;;;;;5125969;28;20047;-72
2022/07/21 09:10:01;;;;;;;13.93;4.80;;;;;;;;;;5127334;28;20043;-73
2022/07/21 09:12:31;;;;;;;8.30;4.30;;;;;;;;;;5127935;28;20405;-73
2022/07/21 09:15:13;;;;;;;;;;;;;;;;;;5127972;28;20047;-72
2022/07/21 09:17:43;;;;;;;7.40;4.30;;;;;;;;;;5125957;27;19930;-73
2022/07/21 09:20:34;;;;;;;6.30;4.50;;;;;;;;;;5127633;28;20043;-72
2022/07/21 09:23:10;;;;;;;8.70;4.95;;;;;;;;;;5127669;28;20043;-73
2022/07/21 09:25:42;;;;;;;7.45;5.05;;;;;;;;;;5127490;28;20043;-74
2022/07/21 09:28:27;;;;;;;8.30;5.05;;;;;;;;;;5127636;28;20044;-73
2022/07/21 09:31:08;;;;;;;7.60;4.10;;;;;;;;;;5127509;28;20046;-72
2022/07/21 09:33:46;;;;;;;8.77;4.03;;;;;;;;;;5127606;28;20034;-73
2022/07/21 09:36:18;;;;;;;10.00;4.90;;;;;;;;;;5127163;28;20055;-72
2022/07/21 09:38:54;;;;;;;5.40;3.58;;;;;;;;;;5127306;28;20047;-72
2022/07/21 09:41:26;;;;;;;5.70;3.90;;;;;;;;;;5127337;28;20049;-73
2022/07/21 09:43:57;;;;;;;4.50;3.40;;;;;;;;;;5127060;28;20054;-73
2022/07/21 09:46:29;;;;;;;42.55;4.22;;;;;;;;;;5127344;28;20059;-72
2022/07/21 09:49:02;;;;;;;8.70;4.35;;;;;;;;;;5127087;28;20520;-72
2022/07/21 09:51:52;;;;;;;5.88;3.78;;;;;;;;;;5127518;27;20039;-73
2022/07/21 09:54:21;;;;;;;;;;;;;;;;;;5131154;27;20063;-74
2022/07/21 09:56:54;;;;;;;6.50;4.13;;;;;;;;;;5130271;27;19930;-74
2022/07/21 09:59:25;;;;;;;5.68;3.90;;;;;;;;;;5130768;27;20050;-73
2022/07/21 10:02:25;;;;;;;7.13;4.13;;;;;;;;;;5131019;27;20482;-73
2022/07/21 10:05:03;;;;;;;12.77;5.00;;;;;;;;;;5130698;27;20047;-73
2022/07/21 10:07:44;;;;;;;10.35;4.70;;;;;;;;;;5130470;27;20058;-74
2022/07/21 10:10:15;;;;;;;11.50;4.57;;;;;;;;;;5130318;27;20494;-72
2022/07/21 10:12:49;;;;;;;7.95;5.00;;;;;;;;;;5130801;27;20047;-72
2022/07/21 10:15:20;;;;;;;8.45;4.53;;;;;;;;;;5130698;27;20498;-72
2022/07/21 10:17:53;;;;;;;8.43;4.45;;;;;;;;;;5130572;27;20035;-72
2022/07/21 10:20:37;;;;;;;8.30;4.47;;;;;;;;;;5130803;27;20050;-73
2022/07/21 10:23:18;;;;;;;7.97;4.60;;;;;;;;;;5131178;27;20051;-73
2022/07/21 10:25:49;;;;;;;6.82;4.60;;;;;;;;;;5129695;27;20054;-74
2022/07/21 10:28:23;;;;;;;8.25;5.32;;;;;;;;;;5130589;27;20514;-74
2022/07/21 10:30:56;;;;;;;11.77;4.75;;;;;;;;;;5129253;27;20054;-72
2022/07/21 10:33:57;;;;;;;7.68;4.78;;;;;;;;;;5129521;27;20039;-72
2022/07/21 10:36:28;;;;;;;6.97;4.40;;;;;;;;;;5122707;27;20066;-72
2022/07/21 10:39:10;;;;;;;8.93;5.55;;;;;;;;;;5130303;27;20061;-74
2022/07/21 10:41:45;;;;;;;8.45;5.07;;;;;;;;;;5129621;27;20050;-72
2022/07/21 10:44:27;;;;;;;9.48;6.10;;;;;;;;;;5127535;27;20054;-74
2022/07/21 10:47:23;;;;;;;11.38;5.10;;;;;;;;;;5130007;27;20526;-73
2022/07/21 10:49:59;;;;;;;9.55;4.97;;;;;;;;;;5130523;27;20054;-72
2022/07/21 10:52:38;;;;;;;7.80;5.40;;;;;;;;;;5130140;27;20043;-73
2022/07/21 10:55:11;;;;;;;8.73;4.55;;;;;;;;;;5130216;27;20050;-74
2022/07/21 10:57:46;;;;;;;6.97;4.20;;;;;;;;;;5129450;27;20418;-74
2022/07/21 11:00:19;;;;;;;8.77;5.22;;;;;;;;;;5129469;27;20050;-74
2022/07/21 11:02:53;;;;;;;5.75;4.38;;;;;;;;;;5129819;27;20070;-73
2022/07/21 11:05:26;;;;;;;6.32;4.40;;;;;;;;;;5128640;27;20058;-73
2022/07/21 11:08:16;;;;;;;6.72;3.65;;;;;;;;;;5130180;27;20406;-75
2022/07/21 11:10:52;;;;;;;5.28;3.42;;;;;;;;;;5129323;27;20051;-72
2022/07/21 11:13:26;;;;;;;4.57;3.80;;;;;;;;;;5129655;27;20054;-73
2022/07/21 11:16:00;;;;;;;7.45;4.32;;;;;;;;;;5130281;27;20047;-77
2022/07/21 11:18:35;;;;;;;7.35;3.78;;;;;;;;;;5129745;27;20502;-76
2022/07/21 11:21:09;;;;;;;5.30;4.03;;;;;;;;;;5129096;27;20047;-75
2022/07/21 11:23:49;;;;;;;3.72;3.03;;;;;;;;;;5129270;27;20513;-73
2022/07/21 11:26:25;;;;;;;7.15;3.60;;;;;;;;;;5128561;27;20047;-75
2022/07/21 11:29:06;;;;;;;4.38;3.70;;;;;;;;;;5129902;27;20059;-75
2022/07/21 11:31:55;;;;;;;4.88;3.40;;;;;;;;;;5129126;27;20043;-74
2022/07/21 11:34:36;;;;;;;6.95;3.35;;;;;;;;;;5127880;27;20043;-74
2022/07/21 11:37:06;;;;;;;3.92;2.85;;;;;;;;;;5127347;27;20055;-74
2022/07/21 11:39:56;;;;;;;3.35;2.70;;;;;;;;;;5128783;27;20073;-73
2022/07/21 11:42:30;;;;;;;4.32;2.78;;;;;;;;;;5129571;27;20043;-73
2022/07/21 11:45:01;;;;;;;3.67;2.50;;;;;;;;;;5129473;27;20397;-73
2022/07/21 11:47:31;;;;;;;5.47;3.25;;;;;;;;;;5128740;27;20046;-73
2022/07/21 11:50:03;;;;;;;4.50;2.83;;;;;;;;;;5128636;27;20069;-73
2022/07/21 11:52:36;;;;;;;7.00;3.10;;;;;;;;;;5128588;27;20513;-73
2022/07/21 11:55:09;;;;;;;4.38;3.13;;;;;;;;;;5129007;27;20047;-73
2022/07/21 11:57:44;;;;;;;5.25;3.50;;;;;;;;;;5129032;27;20038;-74
2022/07/21 12:00:16;;;;;;;4.82;3.50;;;;;;;;;;5128686;27;20047;-74
2022/07/21 12:02:50;;;;;;;5.18;3.97;;;;;;;;;;5127698;27;20039;-73
2022/07/21 12:05:24;;;;;;;5.90;3.28;;;;;;;;;;5128973;27;20054;-73
2022/07/21 12:07:54;;;;;;;4.80;2.97;;;;;;;;;;5129010;27;20860;-74
2022/07/21 12:10:29;;;;;;;4.32;3.28;;;;;;;;;;5128645;27;20066;-73
2022/07/21 12:13:02;;;;;;;6.38;3.03;;;;;;;;;;5128772;27;20527;-74
2022/07/21 12:15:37;;;;;;;6.50;2.78;;;;;;;;;;5128198;27;20039;-76
2022/07/21 12:18:25;;;;;;;4.75;3.63;;;;;;;;;;5127743;27;20391;-74
2022/07/21 12:21:06;;;;;;;5.22;3.20;;;;;;;;;;5128022;27;20520;-73
2022/07/21 12:23:36;;;;;;;7.00;2.90;;;;;;;;;;5128083;27;20043;-74
2022/07/21 12:26:06;;;;;;;5.28;2.60;;;;;;;;;;5128252;27;20581;-74
2022/07/21 12:29:05;;;;;;;4.15;3.20;;;;;;;;;;5128542;27;20050;-74
2022/07/21 12:31:37;;;;;;;7.25;2.97;;;;;;;;;;5120208;27;20055;-74
2022/07/21 12:34:15;;;;;;;4.68;2.85;;;;;;;;;;5127611;27;20048;-74
2022/07/21 12:36:56;;;;;;;9.15;3.53;;;;;;;;;;5128328;27;20498;-74
2022/07/21 12:42:32;;;;;;;12.32;3.10;;;;;;;;;;5127793;27;20410;-74
2022/07/21 12:45:13;;;;;;;8.52;3.00;;;;;;;;;;5127912;27;20509;-74
2022/07/21 12:47:44;;;;;;;8.35;2.90;;;;;;;;;;5126818;27;20047;-74
2022/07/21 12:50:16;;;;;;;5.35;2.35;;;;;;;;;;5127974;27;20058;-76
2022/07/21 12:52:52;;;;;;;4.88;2.78;;;;;;;;;;5127610;27;20054;-74
2022/07/21 12:55:23;;;;;;;7.70;3.00;;;;;;;;;;5128316;27;20047;-74
2022/07/21 12:57:53;;;;;;;6.10;2.17;;;;;;;;;;5126326;27;20433;-74
2022/07/21 13:00:30;;;;;;;6.97;3.03;;;;;;;;;;5126287;27;20047;-74
2022/07/21 13:02:59;;;;;;;10.80;3.17;;;;;;;;;;5126785;27;20074;-76
2022/07/21 13:05:30;;;;;;;5.18;2.47;;;;;;;;;;5127472;27;20057;-74
2022/07/21 13:07:59;;;;;;;7.47;2.63;;;;;;;;;;5128178;28;20488;-74
2022/07/21 13:10:30;;;;;;;6.18;2.92;;;;;;;;;;5127833;28;20039;-74
2022/07/21 13:12:59;;;;;;;6.10;3.08;;;;;;;;;;5127867;28;20055;-74
2022/07/21 13:15:29;;;;;;;6.78;3.03;;;;;;;;;;5127209;28;20051;-74
2022/07/21 13:17:59;;;;;;;9.93;2.70;;;;;;;;;;5127467;28;20039;-74
2022/07/21 13:20:29;;;;;;;6.18;3.67;;;;;;;;;;5127547;28;20735;-74
2022/07/21 13:22:59;;;;;;;5.22;2.85;;;;;;;;;;5127846;28;20058;-74
2022/07/21 13:25:29;;;;;;;6.80;2.92;;;;;;;;;;5127563;28;20043;-74
2022/07/21 13:28:01;;;;;;;6.10;2.50;;;;;;;;;;5129124;27;20047;-74
2022/07/21 13:30:33;;;;;;;3.75;2.75;;;;;;;;;;5132067;27;20051;-73
2022/07/21 13:33:09;;;;;;;6.72;2.95;;;;;;;;;;5130522;27;20132;-74
2022/07/21 13:35:39;;;;;;;4.40;2.90;;;;;;;;;;5131647;27;20054;-74
2022/07/21 13:38:10;;;;;;;5.22;2.40;;;;;;;;;;5131509;27;20047;-74
2022/07/21 13:40:41;;;;;;;5.15;2.50;;;;;;;;;;5129748;27;20062;-76
2022/07/21 13:43:31;;;;;;;5.10;3.47;;;;;;;;;;5131168;27;20051;-77
2022/07/21 13:46:07;;;;;;;5.22;2.35;;;;;;;;;;5132516;27;20413;-77
2022/07/21 13:48:37;;;;;;;4.90;2.42;;;;;;;;;;5130639;27;20055;-72
2022/07/21 13:51:15;;;;;;;4.85;2.40;;;;;;;;;;5131171;27;20047;-72
2022/07/21 13:53:47;;;;;;;3.92;2.75;;;;;;;;;;5131092;27;20062;-73
2022/07/21 13:56:17;;;;;;;9.07;2.67;;;;;;;;;;5131498;27;20047;-73
2022/07/21 13:58:47;;;;;;;3.97;2.50;;;;;;;;;;5131081;27;20054;-74
2022/07/21 14:01:17;;;;;;;20.42;3.45;;;;;;;;;;5130791;27;20062;-74
2022/07/21 14:03:49;;;;;;;4.88;2.83;;;;;;;;;;5129354;27;20073;-73
2022/07/21 14:06:21;;;;;;;3.90;2.80;;;;;;;;;;5130740;27;20047;-76
2022/07/21 14:08:51;;;;;;;11.77;2.92;;;;;;;;;;5131127;27;20529;-76
2022/07/21 14:11:23;;;;;;;3.35;2.50;;;;;;;;;;5130541;27;20050;-74
2022/07/21 14:13:53;;;;;;;6.93;2.88;;;;;;;;;;5130512;27;20039;-73
2022/07/21 14:16:24;;;;;;;3.75;2.58;;;;;;;;;;5130451;27;20043;-73
2022/07/21 14:18:54;;;;;;;5.93;2.88;;;;;;;;;;5130495;27;20039;-74
2022/07/21 14:21:24;;;;;;;11.57;3.47;;;;;;;;;;5130719;27;20050;-74
2022/07/21 14:26:48;;;;;;;5.50;2.95;;;;;;;;;;5120713;27;20078;-73
2022/07/21 14:29:19;;;;;;;4.28;2.60;;;;;;;;;;5130297;27;20046;-76
2022/07/21 14:31:49;;;;;;;3.45;2.08;;;;;;;;;;5130547;27;20426;-74
2022/07/21 14:34:19;;;;;;;5.53;3.10;;;;;;;;;;5129240;27;20078;-74
2022/07/21 14:36:51;;;;;;;13.02;4.78;;;;;;;;;;5130605;27;20054;-73
2022/07/21 14:39:21;;;;;;;17.70;3.53;;;;;;;;;;5130334;27;20035;-74
2022/07/21 14:41:52;;;;;;;6.65;2.70;;;;;;;;;;5130120;27;20055;-74
2022/07/21 14:44:21;;;;;;;3.45;2.65;;;;;;;;;;5130162;27;20050;-72
2022/07/21 14:46:51;;;;;;;6.25;3.13;;;;;;;;;;5129937;27;20051;-75
2022/07/21 14:49:21;;;;;;;4.90;2.90;;;;;;;;;;5130614;27;20046;-74
2022/07/21 14:51:51;;;;;;;14.68;3.83;;;;;;;;;;5130706;27;20600;-73
2022/07/21 14:54:21;;;;;;;4.75;2.70;;;;;;;;;;5130180;27;20054;-73
2022/07/21 14:56:50;;;;;;;8.43;3.17;;;;;;;;;;5129761;27;20116;-72
2022/07/21 14:59:37;;;;;;;6.93;2.88;;;;;;;;;;5130231;27;20054;-74
2022/07/21 15:02:07;;;;;;;5.55;2.58;;;;;;;;;;5129284;27;20418;-73
2022/07/21 15:04:44;;;;;;;9.02;2.55;;;;;;;;;;5129717;27;20047;-73
2022/07/21 15:07:14;;;;;;;9.00;2.53;;;;;;;;;;5130245;27;20047;-75
2022/07/21 15:09:45;;;;;;;6.95;2.70;;;;;;;;;;5128357;27;20070;-74
2022/07/21 15:12:14;;;;;;;5.85;2.78;;;;;;;;;;5129745;27;20051;-73
2022/07/21 15:14:44;;;;;;;3.97;2.00;;;;;;;;;;5128955;27;20714;-74
2022/07/21 15:17:15;;;;;;;3.50;2.58;;;;;;;;;;5130021;27;20035;-74
2022/07/21 15:19:46;;;;;;;5.35;2.63;;;;;;;;;;5129455;27;20505;-73
2022/07/21 15:22:15;;;;;;;6.35;2.90;;;;;;;;;;5129647;27;20051;-73
2022/07/21 15:24:45;;;;;;;9.30;3.85;;;;;;;;;;5129120;27;21119;-72
2022/07/21 15:27:15;;;;;;;5.53;2.33;;;;;;;;;;5129064;27;20054;-77
2022/07/21 15:29:45;;;;;;;4.75;2.47;;;;;;;;;;5128964;27;20520;-73